createdAt,value
2023-01-10T00:01:48.278Z,100353.56
2023-01-10T00:03:52.163Z,100359.75
2023-01-10T00:05:57.006Z,100339.50
2023-01-10T00:08:02.367Z,100349.84
2023-01-10T00:10:06.223Z,100340.94
2023-01-10T00:12:26.948Z,100336.44
2023-01-10T00:14:33.722Z,100337.22
2023-01-10T00:16:39.548Z,100337.13
2023-01-10T00:18:42.930Z,100339.69
2023-01-10T00:20:47.596Z,100332.72
2023-01-10T00:22:52.488Z,100335.34
2023-01-10T00:24:56.117Z,100315.16
2023-01-10T00:26:59.841Z,100305.66
2023-01-10T00:29:04.181Z,100318.03
2023-01-10T00:31:08.657Z,100321.63
2023-01-10T00:33:21.065Z,100314.56
2023-01-10T00:35:25.100Z,100304.78
2023-01-10T00:37:28.961Z,100304.88
2023-01-10T00:39:34.192Z,100302.25
2023-01-10T00:42:09.219Z,100296.06
2023-01-10T00:44:12.457Z,100290.97
2023-01-10T00:46:15.868Z,100283.84
2023-01-10T00:48:19.137Z,100286.38
2023-01-10T00:50:22.510Z,100274.84
2023-01-10T00:52:25.884Z,100280.97
2023-01-10T00:54:29.295Z,100272.06
2023-01-10T00:56:34.169Z,100268.41
2023-01-10T00:58:37.915Z,100261.34
2023-01-10T01:00:41.170Z,100271.78
2023-01-10T01:02:44.552Z,100265.56
2023-01-10T01:04:48.435Z,100252.31
2023-01-10T01:06:52.199Z,100231.25
2023-01-10T01:08:55.705Z,100233.06
2023-01-10T01:10:59.221Z,100231.25
2023-01-10T01:13:08.029Z,100229.47
2023-01-10T01:15:12.799Z,100213.75
2023-01-10T01:17:16.331Z,100209.38
2023-01-10T01:19:19.721Z,100199.69
2023-01-10T01:21:28.432Z,100196.31
2023-01-10T01:23:31.976Z,100194.59
2023-01-10T01:25:35.677Z,100197.28
2023-01-10T01:27:40.094Z,100191.97
2023-01-10T01:29:45.109Z,100189.25
2023-01-10T01:31:48.837Z,100172.53
2023-01-10T01:33:52.441Z,100159.94
2023-01-10T01:35:56.256Z,100153.50
2023-01-10T01:37:59.812Z,100153.97
2023-01-10T01:40:03.430Z,100149.19
2023-01-10T01:42:07.327Z,100144.44
2023-01-10T01:44:16.162Z,100152.91
2023-01-10T01:46:21.412Z,100154.34
2023-01-10T01:48:31.022Z,100149.75
2023-01-10T01:50:36.391Z,100135.47
2023-01-10T01:52:40.053Z,100129.06
2023-01-10T01:54:44.090Z,100135.84
2023-01-10T01:56:51.347Z,100131.31
2023-01-10T01:58:56.258Z,100130.38
2023-01-10T02:00:59.986Z,100128.53
2023-01-10T02:03:07.266Z,100113.47
2023-01-10T02:05:12.375Z,100108.88
2023-01-10T02:07:16.357Z,100104.44
2023-01-10T02:09:22.707Z,100109.69
2023-01-10T02:11:26.107Z,100096.53
2023-01-10T02:13:29.454Z,100091.25
2023-01-10T02:15:32.880Z,100075.66
2023-01-10T02:17:36.088Z,100073.22
2023-01-10T02:19:49.553Z,100060.22
2023-01-10T02:22:16.746Z,100064.84
2023-01-10T02:24:40.853Z,100053.63
2023-01-10T02:26:59.329Z,100025.78
2023-01-10T02:29:32.793Z,100032.19
2023-01-10T02:31:44.385Z,100020.16
2023-01-10T02:33:51.171Z,100009.81
2023-01-10T02:36:05.501Z,100014.31
2023-01-10T02:38:15.515Z,100007.53
2023-01-10T02:40:23.796Z,100000.63
2023-01-10T02:42:30.648Z,99990.09
2023-01-10T02:44:37.718Z,99993.66
2023-01-10T02:46:41.554Z,99991.19
2023-01-10T02:48:44.864Z,99987.03
2023-01-10T02:50:54.166Z,99978.41
2023-01-10T02:52:58.823Z,99973.34
2023-01-10T02:55:03.827Z,99962.97
2023-01-10T02:57:23.503Z,99953.41
2023-01-10T02:59:39.284Z,99945.69
2023-01-10T03:01:49.773Z,99945.88
2023-01-10T03:03:58.292Z,99928.59
2023-01-10T03:06:10.213Z,99917.56
2023-01-10T03:08:20.121Z,99901.13
2023-01-10T03:10:27.863Z,99887.59
2023-01-10T03:12:34.249Z,99876.41
2023-01-10T03:14:39.685Z,99863.81
2023-01-10T03:16:45.517Z,99846.81
2023-01-10T03:18:50.699Z,99838.72
2023-01-10T03:20:55.371Z,99830.44
2023-01-10T03:23:02.398Z,99837.00
2023-01-10T03:25:07.302Z,99820.59
2023-01-10T03:27:12.886Z,99811.22
2023-01-10T03:29:20.514Z,99798.31
2023-01-10T03:31:25.686Z,99787.25
2023-01-10T03:33:31.082Z,99780.47
2023-01-10T03:35:37.248Z,99773.63
2023-01-10T03:37:45.805Z,99750.16
2023-01-10T03:39:55.785Z,99739.75
2023-01-10T03:42:04.330Z,99723.25
2023-01-10T03:44:31.907Z,99718.00
2023-01-10T03:46:37.900Z,99697.06
2023-01-10T03:48:44.153Z,99702.41
2023-01-10T03:50:47.647Z,99684.97
2023-01-10T03:52:51.144Z,99651.66
2023-01-10T03:54:55.919Z,99641.06
2023-01-10T03:57:00.799Z,99629.63
2023-01-10T03:59:05.171Z,99616.50
2023-01-10T04:01:08.664Z,99619.13
2023-01-10T04:03:12.187Z,99588.34
2023-01-10T04:05:15.700Z,99572.47
2023-01-10T04:07:19.284Z,99552.94
2023-01-10T04:09:22.787Z,99542.91
2023-01-10T04:11:27.465Z,99516.53
2023-01-10T04:13:30.897Z,99526.00
2023-01-10T04:15:34.170Z,99514.44
2023-01-10T04:17:37.600Z,99489.78
2023-01-10T04:19:40.935Z,99488.84
2023-01-10T04:21:44.164Z,99461.41
2023-01-10T04:23:47.447Z,99457.84
2023-01-10T04:25:50.882Z,99453.22
2023-01-10T04:27:55.641Z,99454.81
2023-01-10T04:29:59.086Z,99438.00
2023-01-10T04:32:02.501Z,99416.84
2023-01-10T04:34:05.883Z,99409.72
2023-01-10T04:36:09.559Z,99404.25
2023-01-10T04:38:13.088Z,99387.56
2023-01-10T04:40:19.726Z,99378.63
2023-01-10T04:42:23.584Z,99372.28
2023-01-10T04:44:28.497Z,99365.03
2023-01-10T04:46:32.487Z,99364.75
2023-01-10T04:48:37.470Z,99356.66
2023-01-10T04:50:40.759Z,99334.44
2023-01-10T04:52:43.943Z,99328.97
2023-01-10T04:54:47.644Z,99331.50
2023-01-10T04:56:50.996Z,99335.47
2023-01-10T04:58:54.411Z,99318.66
2023-01-10T05:00:59.375Z,99317.38
2023-01-10T05:03:02.854Z,99320.75
2023-01-10T05:05:06.362Z,99310.94
2023-01-10T05:07:10.017Z,99303.06
2023-01-10T05:09:13.292Z,99308.94
2023-01-10T05:11:16.673Z,99272.78
2023-01-10T05:13:19.946Z,99263.72
2023-01-10T05:15:23.419Z,99237.91
2023-01-10T05:17:28.207Z,99256.25
2023-01-10T05:19:31.606Z,99242.84
2023-01-10T05:21:34.621Z,99243.56
2023-01-10T05:23:37.646Z,99231.03
2023-01-10T05:25:40.697Z,99229.88
2023-01-10T05:27:44.146Z,99231.31
2023-01-10T05:29:47.144Z,99233.50
2023-01-10T05:31:51.856Z,99239.59
2023-01-10T05:33:56.257Z,99201.69
2023-01-10T05:35:59.206Z,99207.47
2023-01-10T05:38:02.289Z,99208.19
2023-01-10T05:40:05.635Z,99227.34
2023-01-10T05:42:08.616Z,99192.13
2023-01-10T05:44:13.096Z,99206.03
2023-01-10T05:46:17.320Z,99177.69
2023-01-10T05:48:20.688Z,99171.22
2023-01-10T05:50:25.191Z,99191.22
2023-01-10T05:52:28.139Z,99174.97
2023-01-10T05:54:31.190Z,99146.50
2023-01-10T05:56:34.093Z,99139.31
2023-01-10T05:58:37.329Z,99153.09
2023-01-10T06:00:40.763Z,99146.03
2023-01-10T06:02:43.935Z,99151.03
2023-01-10T06:04:46.891Z,99143.88
2023-01-10T06:06:51.272Z,99149.75
2023-01-10T06:08:56.503Z,99143.38
2023-01-10T06:10:59.482Z,99129.75
2023-01-10T06:13:02.415Z,99125.94
2023-01-10T06:15:05.895Z,99116.56
2023-01-10T06:17:10.308Z,99119.22
2023-01-10T06:19:13.427Z,99137.19
2023-01-10T06:21:16.467Z,99124.22
2023-01-10T06:23:21.728Z,99120.88
2023-01-10T06:25:24.658Z,99119.28
2023-01-10T06:27:27.672Z,99112.56
2023-01-10T06:29:30.688Z,99112.06
2023-01-10T06:31:33.831Z,99110.50
2023-01-10T06:33:36.884Z,99113.34
2023-01-10T06:35:40.301Z,99102.53
2023-01-10T06:37:43.249Z,99085.38
2023-01-10T06:39:47.624Z,99086.78
2023-01-10T06:41:50.776Z,99081.97
2023-01-10T06:43:53.974Z,99079.66
2023-01-10T06:45:57.035Z,99076.63
2023-01-10T06:48:00.089Z,99070.97
2023-01-10T06:50:03.093Z,99052.94
2023-01-10T06:52:06.219Z,99063.00
2023-01-10T06:54:09.373Z,99050.00
2023-01-10T06:56:13.738Z,99050.88
2023-01-10T06:58:18.628Z,99049.03
2023-01-10T07:00:22.220Z,99030.31
2023-01-10T07:02:25.172Z,99032.16
2023-01-10T07:04:28.131Z,99010.22
2023-01-10T07:06:31.515Z,99009.00
2023-01-10T07:08:34.379Z,99007.09
2023-01-10T07:10:37.477Z,99010.72
2023-01-10T07:12:41.841Z,99002.69
2023-01-10T07:14:44.892Z,99004.22
2023-01-10T07:16:47.915Z,99002.25
2023-01-10T07:18:50.967Z,99008.53
2023-01-10T07:20:55.578Z,98998.09
2023-01-10T07:22:59.557Z,98997.38
2023-01-10T07:25:02.549Z,99000.72
2023-01-10T07:27:05.551Z,98982.88
2023-01-10T07:29:10.171Z,98989.84
2023-01-10T07:31:13.747Z,98985.13
2023-01-10T07:33:16.965Z,98977.84
2023-01-10T07:35:19.919Z,98972.41
2023-01-10T07:37:22.907Z,98974.25
2023-01-10T07:39:25.871Z,98949.44
2023-01-10T07:41:29.014Z,98933.41
2023-01-10T07:43:35.217Z,98956.94
2023-01-10T07:45:39.703Z,98949.72
2023-01-10T07:47:42.744Z,98925.88
2023-01-10T07:49:45.657Z,98944.13
2023-01-10T07:51:48.703Z,98933.25
2023-01-10T07:53:51.625Z,98926.69
2023-01-10T07:55:54.882Z,98919.28
2023-01-10T07:57:58.244Z,98929.59
2023-01-10T08:00:01.370Z,98918.69
2023-01-10T08:02:05.789Z,98916.91
2023-01-10T08:04:08.856Z,98912.00
2023-01-10T08:06:13.139Z,98890.66
2023-01-10T08:08:17.517Z,98905.19
2023-01-10T08:10:20.499Z,98898.59
2023-01-10T08:12:24.774Z,98899.97
2023-01-10T08:14:27.821Z,98906.94
2023-01-10T08:16:30.790Z,98916.38
2023-01-10T08:18:35.374Z,98905.53
2023-01-10T08:20:38.834Z,98900.22
2023-01-10T08:22:42.021Z,98896.28
2023-01-10T08:24:44.992Z,98893.19
2023-01-10T08:26:47.968Z,98892.06
2023-01-10T08:28:50.946Z,98883.97
2023-01-10T08:30:55.848Z,98883.00
2023-01-10T08:32:58.877Z,98898.88
2023-01-10T08:35:03.414Z,98885.47
2023-01-10T08:37:06.367Z,98895.09
2023-01-10T08:39:09.457Z,98887.00
2023-01-10T08:41:12.585Z,98892.00
2023-01-10T08:43:15.881Z,98893.69
2023-01-10T08:45:18.869Z,98908.44
2023-01-10T08:47:21.895Z,98904.13
2023-01-10T08:49:24.963Z,98897.16
2023-01-10T08:51:29.401Z,98885.72
2023-01-10T08:53:32.369Z,98870.94
2023-01-10T08:55:36.465Z,98881.56
2023-01-10T08:57:39.360Z,98878.09
2023-01-10T08:59:42.354Z,98888.69
2023-01-10T09:01:45.553Z,98885.88
2023-01-10T09:03:48.878Z,98876.09
2023-01-10T09:05:52.219Z,98882.91
2023-01-10T09:07:59.449Z,98870.50
2023-01-10T09:10:02.685Z,98866.03
2023-01-10T09:12:26.583Z,98886.28
2023-01-10T09:14:29.820Z,98864.59
2023-01-10T09:16:33.033Z,98850.38
2023-01-10T09:18:36.348Z,98865.97
2023-01-10T09:20:40.432Z,98855.22
2023-01-10T09:22:43.565Z,98857.03
2023-01-10T09:24:48.530Z,98866.63
2023-01-10T09:26:51.655Z,98872.63
2023-01-10T09:28:54.903Z,98867.03
2023-01-10T09:30:58.146Z,98876.34
2023-01-10T09:33:01.762Z,98872.56
2023-01-10T09:35:05.240Z,98882.72
2023-01-10T09:37:08.602Z,98873.63
2023-01-10T09:39:11.968Z,98860.22
2023-01-10T09:41:28.983Z,98875.13
2023-01-10T09:43:39.144Z,98885.59
2023-01-10T09:45:46.870Z,98896.19
2023-01-10T09:47:54.487Z,98881.13
2023-01-10T09:50:02.887Z,98871.34
2023-01-10T09:52:11.354Z,98858.78
2023-01-10T09:54:18.107Z,98849.16
2023-01-10T09:56:21.925Z,98838.41
2023-01-10T09:58:28.193Z,98841.75
2023-01-10T10:00:39.371Z,98835.44
2023-01-10T10:02:45.970Z,98825.50
2023-01-10T10:04:56.935Z,98834.13
2023-01-10T10:07:00.212Z,98829.53
2023-01-10T10:09:04.972Z,98827.41
2023-01-10T10:11:12.094Z,98821.94
2023-01-10T10:13:26.976Z,98828.75
2023-01-10T10:15:36.294Z,98819.63
2023-01-10T10:17:44.429Z,98829.97
2023-01-10T10:19:54.237Z,98813.72
2023-01-10T10:22:02.372Z,98802.13
2023-01-10T10:24:19.568Z,98804.47
2023-01-10T10:26:26.505Z,98800.69
2023-01-10T10:28:54.033Z,98776.63
2023-01-10T10:31:02.974Z,98819.75
2023-01-10T10:33:20.580Z,98787.78
2023-01-10T10:35:27.742Z,98796.41
2023-01-10T10:37:34.093Z,98793.91
2023-01-10T10:39:38.992Z,98788.28
2023-01-10T10:41:44.432Z,98774.03
2023-01-10T10:43:47.937Z,98795.09
2023-01-10T10:45:54.206Z,98771.91
2023-01-10T10:48:00.592Z,98781.38
2023-01-10T10:50:08.351Z,98769.59
2023-01-10T10:52:15.853Z,98753.19
2023-01-10T10:54:19.165Z,98776.25
2023-01-10T10:56:24.568Z,98763.81
2023-01-10T10:58:30.908Z,98766.16
2023-01-10T11:00:35.339Z,98761.53
2023-01-10T11:02:41.778Z,98762.19
2023-01-10T11:04:46.576Z,98758.72
2023-01-10T11:06:50.170Z,98747.06
2023-01-10T11:08:54.744Z,98741.63
2023-01-10T11:10:58.733Z,98754.91
2023-01-10T11:13:03.436Z,98732.66
2023-01-10T11:15:07.462Z,98746.94
2023-01-10T11:17:21.443Z,98740.63
2023-01-10T11:19:25.760Z,98731.69
2023-01-10T11:21:30.374Z,98733.19
2023-01-10T11:23:39.345Z,98711.94
2023-01-10T11:25:49.172Z,98716.09
2023-01-10T11:27:53.746Z,98696.66
2023-01-10T11:29:59.366Z,98710.78
2023-01-10T11:32:09.659Z,98698.34
2023-01-10T11:34:20.434Z,98698.34
2023-01-10T11:36:23.730Z,98689.56
2023-01-10T11:38:30.490Z,98693.88
2023-01-10T11:40:34.083Z,98680.59
2023-01-10T11:42:37.354Z,98671.63
2023-01-10T11:44:40.729Z,98662.34
2023-01-10T11:46:45.049Z,98664.00
2023-01-10T11:49:08.863Z,98675.19
2023-01-10T11:51:20.461Z,98676.00
2023-01-10T11:53:37.804Z,98646.47
2023-01-10T11:55:40.964Z,98625.91
2023-01-10T11:57:44.297Z,98620.59
2023-01-10T11:59:52.685Z,98618.59
2023-01-10T12:01:58.095Z,98605.97
2023-01-10T12:04:01.785Z,98584.75
2023-01-10T12:06:07.522Z,98559.84
2023-01-10T12:08:24.327Z,98574.75
2023-01-10T12:10:30.054Z,98576.44
2023-01-10T12:12:34.868Z,98587.91
2023-01-10T12:14:38.195Z,98568.28
2023-01-10T12:16:41.341Z,98562.81
2023-01-10T12:18:44.860Z,98548.53
2023-01-10T12:20:49.984Z,98564.47
2023-01-10T12:22:57.061Z,98550.03
2023-01-10T12:25:02.474Z,98550.22
2023-01-10T12:27:09.115Z,98547.22
2023-01-10T12:29:16.849Z,98539.25
2023-01-10T12:31:21.847Z,98552.22
2023-01-10T12:33:27.309Z,98535.09
2023-01-10T12:35:38.171Z,98527.13
2023-01-10T12:37:45.426Z,98526.97
2023-01-10T12:39:50.701Z,98498.56
2023-01-10T12:42:15.964Z,98508.84
2023-01-10T12:44:24.880Z,98483.94
2023-01-10T12:47:00.170Z,98501.72
2023-01-10T12:48:57.458Z,98494.59
2023-01-10T12:51:03.068Z,98472.34
2023-01-10T12:53:08.376Z,98464.84
2023-01-10T12:55:14.107Z,98459.69
2023-01-10T12:57:23.217Z,98460.53
2023-01-10T12:59:37.661Z,98440.28
2023-01-10T13:01:43.338Z,98437.44
2023-01-10T13:03:47.433Z,98438.28
2023-01-10T13:05:52.307Z,98442.25
2023-01-10T13:07:57.480Z,98442.06
2023-01-10T13:10:02.889Z,98408.19
2023-01-10T13:12:11.067Z,98425.13
2023-01-10T13:14:16.422Z,98407.22
2023-01-10T13:16:25.511Z,98408.03
2023-01-10T13:18:29.581Z,98405.84
2023-01-10T13:20:40.348Z,98405.50
2023-01-10T13:22:44.415Z,98389.22
2023-01-10T13:24:56.813Z,98388.03
2023-01-10T13:27:02.200Z,98357.13
2023-01-10T13:29:12.673Z,98367.44
2023-01-10T13:31:25.516Z,98350.00
2023-01-10T13:33:30.359Z,98360.97
2023-01-10T13:35:41.051Z,98354.03
2023-01-10T13:37:45.856Z,98344.56
2023-01-10T13:39:53.160Z,98356.19
2023-01-10T13:42:30.498Z,98338.75
2023-01-10T13:44:53.773Z,98319.16
2023-01-10T13:46:58.286Z,98324.00
2023-01-10T13:49:34.721Z,98334.63
2023-01-10T13:51:38.921Z,98301.91
2023-01-10T13:53:47.113Z,98323.16
2023-01-10T13:55:56.888Z,98315.38
2023-01-10T13:58:01.091Z,98321.88
2023-01-10T14:00:22.418Z,98321.88
2023-01-10T14:02:30.123Z,98296.28
2023-01-10T14:04:35.919Z,98312.41
2023-01-10T14:06:43.155Z,98296.81
2023-01-10T14:08:51.212Z,98276.91
2023-01-10T14:11:06.663Z,98275.44
2023-01-10T14:13:24.283Z,98269.47
2023-01-10T14:15:30.048Z,98274.78
2023-01-10T14:17:35.446Z,98261.50
2023-01-10T14:19:39.559Z,98249.06
2023-01-10T14:21:45.693Z,98233.75
2023-01-10T14:23:53.369Z,98245.03
2023-01-10T14:25:58.045Z,98221.97
2023-01-10T14:28:02.123Z,98198.91
2023-01-10T14:30:05.612Z,98223.63
2023-01-10T14:32:17.743Z,98202.38
2023-01-10T14:34:23.378Z,98195.88
2023-01-10T14:36:28.639Z,98207.31
2023-01-10T14:38:32.831Z,98227.75
2023-01-10T14:40:41.082Z,98227.75
2023-01-10T14:42:45.165Z,98220.41
2023-01-10T14:44:52.470Z,98210.97
2023-01-10T14:46:57.633Z,98225.72
2023-01-10T14:49:01.826Z,98215.09
2023-01-10T15:04:57.478Z,98215.06
2023-01-10T15:07:03.111Z,98230.56
2023-01-10T15:09:08.983Z,98222.41
2023-01-10T15:11:35.134Z,98238.84
2023-01-10T15:16:19.640Z,98237.25
2023-01-10T15:18:33.695Z,98250.81
2023-01-10T15:20:38.886Z,98270.75
2023-01-10T15:22:43.749Z,98279.06
2023-01-10T15:24:58.385Z,98275.75
2023-01-10T15:27:17.874Z,98300.16
2023-01-10T15:29:24.042Z,98311.28
2023-01-10T15:31:34.241Z,98316.09
2023-01-10T15:33:58.151Z,98371.19
2023-01-10T15:38:44.769Z,98435.00
2023-01-10T15:40:57.480Z,98456.41
2023-01-10T15:43:25.396Z,98467.84
2023-01-10T15:45:31.390Z,98462.81
2023-01-10T15:47:40.881Z,98482.00
2023-01-10T15:49:54.096Z,98520.66
2023-01-10T15:51:59.035Z,98517.94
2023-01-10T15:54:06.373Z,98549.03
2023-01-10T15:56:12.413Z,98564.47
2023-01-10T15:58:22.571Z,98576.44
2023-01-10T16:00:27.004Z,98574.03
2023-01-10T16:02:34.795Z,98592.13
2023-01-10T16:04:44.672Z,98593.16
2023-01-10T16:23:44.183Z,98622.22
2023-01-10T16:25:49.520Z,98618.22
2023-01-10T16:27:56.283Z,98613.06
2023-01-10T16:29:59.481Z,98592.22
2023-01-10T16:32:02.927Z,98604.72
2023-01-10T16:34:06.126Z,98622.56
2023-01-10T16:36:14.938Z,98625.34
2023-01-10T16:38:18.577Z,98634.25
2023-01-10T16:40:24.749Z,98636.19
2023-01-10T16:42:45.298Z,98632.03
2023-01-10T16:44:48.535Z,98632.03
2023-01-10T16:46:53.213Z,98648.88
2023-01-10T16:48:56.513Z,98663.06
2023-01-10T16:51:06.402Z,98646.38
2023-01-10T16:53:12.037Z,98641.09
2023-01-10T16:55:16.290Z,98651.78
2023-01-10T16:57:20.915Z,98659.03
2023-01-10T16:59:24.086Z,98660.00
2023-01-10T17:01:30.185Z,98668.91
2023-01-10T17:03:37.882Z,98669.06
2023-01-10T17:05:41.084Z,98679.63
2023-01-10T17:07:44.458Z,98686.59
2023-01-10T17:09:47.706Z,98691.88
2023-01-10T17:11:54.686Z,98705.09
2023-01-10T17:13:59.764Z,98695.47
2023-01-10T17:16:03.034Z,98704.66
2023-01-10T17:18:06.266Z,98708.44
2023-01-10T17:20:10.887Z,98705.25
2023-01-10T17:22:14.009Z,98717.75
2023-01-10T17:24:17.347Z,98723.47
2023-01-10T17:26:20.857Z,98740.44
2023-01-10T17:28:24.260Z,98744.31
2023-01-10T17:30:28.909Z,98743.91
2023-01-10T17:32:32.162Z,98751.97
2023-01-10T17:34:37.627Z,98769.78
2023-01-10T17:36:40.815Z,98770.88
2023-01-10T17:38:44.345Z,98789.47
2023-01-10T17:40:48.649Z,98811.59
2023-01-10T17:42:52.355Z,98803.81
2023-01-10T17:44:55.572Z,98811.84
2023-01-10T17:47:00.332Z,98827.84
2023-01-10T17:49:03.615Z,98837.88
2023-01-10T17:51:07.748Z,98835.34
2023-01-10T17:53:11.455Z,98834.75
2023-01-10T17:55:14.734Z,98846.41
2023-01-10T17:57:17.923Z,98846.69
2023-01-10T17:59:21.831Z,98867.09
2023-01-10T18:01:25.920Z,98861.41
2023-01-10T18:03:30.709Z,98851.94
2023-01-10T18:05:35.380Z,98871.53
2023-01-10T18:07:38.670Z,98880.56
2023-01-10T18:09:41.860Z,98879.84
2023-01-10T18:11:45.172Z,98885.25
2023-01-10T18:13:48.376Z,98887.19
2023-01-10T18:15:52.543Z,98891.63
2023-01-10T18:17:55.699Z,98911.91
2023-01-10T18:20:00.299Z,98917.19
2023-01-10T18:22:26.397Z,98925.78
2023-01-10T18:24:29.521Z,98926.78
2023-01-10T18:26:32.796Z,98939.97
2023-01-10T18:28:42.309Z,98933.84
2023-01-10T18:30:45.993Z,98927.75
2023-01-10T18:32:49.412Z,98928.97
2023-01-10T18:34:52.573Z,98951.31
2023-01-10T18:36:57.181Z,98955.88
2023-01-10T18:39:00.357Z,98944.63
2023-01-10T18:41:03.560Z,98950.88
2023-01-10T18:43:06.727Z,98952.81
2023-01-10T18:45:10.656Z,98972.94
2023-01-10T18:47:13.763Z,98974.63
2023-01-10T18:49:17.722Z,98978.81
2023-01-10T18:51:22.798Z,98975.06
2023-01-10T18:53:27.748Z,98979.38
2023-01-10T18:55:30.840Z,98995.91
2023-01-10T18:57:34.136Z,98995.66
2023-01-10T18:59:39.788Z,99010.53
2023-01-10T19:01:43.049Z,99004.16
2023-01-10T19:03:47.209Z,98997.78
2023-01-10T19:05:50.553Z,99004.03
2023-01-10T19:07:54.029Z,99013.75
2023-01-10T19:09:58.575Z,99004.16
2023-01-10T19:12:01.915Z,99012.91
2023-01-10T19:14:05.123Z,99009.56
2023-01-10T19:16:15.453Z,98999.13
2023-01-10T19:18:18.917Z,99001.78
2023-01-10T19:20:22.274Z,99008.97
2023-01-10T19:22:25.460Z,99021.34
2023-01-10T19:24:29.850Z,99023.03
2023-01-10T19:26:34.601Z,99042.19
2023-01-10T19:28:37.739Z,99041.25
2023-01-10T19:30:41.540Z,99032.38
2023-01-10T19:32:44.897Z,99055.25
2023-01-10T19:34:47.858Z,99071.09
2023-01-10T19:36:50.946Z,99072.91
2023-01-10T19:38:57.625Z,99091.38
2023-01-10T19:41:00.774Z,99103.63
2023-01-10T19:43:05.773Z,99112.38
2023-01-10T19:45:09.482Z,99115.00
2023-01-10T19:47:12.650Z,99123.88
2023-01-10T19:49:17.903Z,99130.72
2023-01-10T19:51:21.100Z,99150.16
2023-01-10T19:53:27.309Z,99145.59
2023-01-10T19:55:30.485Z,99156.16
2023-01-10T19:57:33.991Z,99178.09
2023-01-10T19:59:38.602Z,99185.31
2023-01-10T20:01:42.439Z,99199.34
2023-01-10T20:03:48.066Z,99207.25
2023-01-10T20:06:01.352Z,99223.97
2023-01-10T20:08:05.351Z,99225.03
2023-01-10T20:10:17.827Z,99240.03
2023-01-10T20:12:22.133Z,99240.41
2023-01-10T20:14:26.450Z,99254.69
2023-01-10T20:16:31.462Z,99257.69
2023-01-10T20:20:56.408Z,99279.53
2023-01-10T20:23:23.141Z,99285.16
2023-01-10T20:25:29.699Z,99289.84
2023-01-10T20:27:33.123Z,99287.56
2023-01-10T20:29:45.828Z,99292.13
2023-01-10T20:31:53.709Z,99296.59
2023-01-10T20:33:57.386Z,99304.72
2023-01-10T20:36:02.399Z,99300.63
2023-01-10T20:38:07.712Z,99316.72
2023-01-10T20:40:13.031Z,99326.66
2023-01-10T20:42:35.030Z,99320.78
2023-01-10T20:44:39.800Z,99321.88
2023-01-10T20:53:38.467Z,99327.97
2023-01-10T20:55:59.715Z,99327.34
2023-01-10T20:58:03.917Z,99324.00
2023-01-10T21:00:08.240Z,99327.72
2023-01-10T21:02:12.564Z,99327.94
2023-01-10T21:04:16.165Z,99334.28
2023-01-10T21:06:20.635Z,99330.91
2023-01-10T21:08:25.833Z,99341.56
2023-01-10T21:10:29.490Z,99330.22
2023-01-10T21:12:34.773Z,99331.97
2023-01-10T21:14:38.415Z,99331.16
2023-01-10T21:16:42.232Z,99341.81
2023-01-10T21:18:46.148Z,99344.47
2023-01-10T21:23:19.144Z,99350.91
2023-01-10T21:25:44.263Z,99356.31
2023-01-10T21:28:16.526Z,99365.16
2023-01-10T21:30:24.093Z,99371.38
2023-01-10T21:32:31.605Z,99373.31
2023-01-10T21:34:38.672Z,99376.06
2023-01-10T21:36:43.494Z,99371.72
2023-01-10T21:38:57.237Z,99381.41
2023-01-10T21:41:07.920Z,99393.03
2023-01-10T21:43:14.192Z,99395.69
2023-01-10T21:48:22.012Z,99396.00
2023-01-10T21:50:41.539Z,99397.94
2023-01-10T21:52:45.651Z,99401.50
2023-01-10T21:54:49.677Z,99399.94
2023-01-10T21:56:59.124Z,99399.22
2023-01-10T21:59:10.716Z,99401.94
2023-01-10T22:01:25.267Z,99411.66
2023-01-10T22:03:31.438Z,99416.22
2023-01-10T22:05:35.320Z,99418.94
2023-01-10T22:07:39.241Z,99427.91
2023-01-10T22:09:45.893Z,99427.06
2023-01-10T22:11:52.437Z,99442.97
2023-01-10T22:13:59.615Z,99426.34
2023-01-10T22:16:04.899Z,99435.31
2023-01-10T22:21:05.306Z,99434.69
2023-01-10T22:23:15.932Z,99429.63
2023-01-10T22:25:47.981Z,99440.41
2023-01-10T22:27:53.805Z,99448.38
2023-01-10T22:30:01.178Z,99448.63
2023-01-10T22:32:07.109Z,99445.97
2023-01-10T22:34:23.828Z,99440.19
2023-01-10T22:36:27.845Z,99440.19
2023-01-10T22:38:33.035Z,99444.75
2023-01-10T22:40:36.418Z,99451.69
2023-01-10T22:42:40.387Z,99457.91
2023-01-10T22:44:48.067Z,99456.97
2023-01-10T22:46:53.097Z,99457.69
2023-01-10T22:52:18.375Z,99462.97
2023-01-10T22:57:11.617Z,99456.09
2023-01-10T22:59:23.964Z,99450.00
2023-01-10T23:04:20.476Z,99459.78
2023-01-10T23:06:38.360Z,99458.13
2023-01-10T23:18:26.912Z,99456.22
2023-01-10T23:23:18.106Z,99460.56
2023-01-10T23:25:20.004Z,99466.16
2023-01-10T23:38:01.157Z,99479.53
2023-01-10T23:40:49.861Z,99483.22
2023-01-10T23:42:55.720Z,99477.13
2023-01-10T23:44:59.224Z,99482.41
2023-01-10T23:47:03.439Z,99485.97
2023-01-10T23:49:10.117Z,99483.34
2023-01-10T23:52:52.845Z,99487.75
